Time;durP1;ratioP1;P1;durP2;ratioP2;P2;SDS_P1;SDS_P2;PMS_P1;PMS_P2;Temp;Humidity;BMP_temperature;BMP_pressure;BME280_temperature;BME280_humidity;BME280_pressure;Samples;Min_cycle;Max_cycle;Signal;HPM_P1;HPM_P2
2023/04/02 00:01:00;;;;;;;6.77;1.20;;;17.40;99.90;;;;;;5114810;27;20707;-68
2023/04/02 00:03:58;;;;;;;3.03;1.13;;;17.50;99.90;;;;;;5114247;28;20175;-66
2023/04/02 00:06:43;;;;;;;3.33;1.20;;;17.60;99.90;;;;;;5114643;28;20263;-67
2023/04/02 00:09:14;;;;;;;6.53;1.40;;;17.60;99.90;;;;;;5114230;28;20213;-68
2023/04/02 00:11:47;;;;;;;3.73;1.27;;;17.90;99.90;;;;;;5102134;28;20198;-67
2023/04/02 00:14:34;;;;;;;5.73;1.57;;;18.30;99.90;;;;;;5103114;28;20189;-65
2023/04/02 00:17:05;;;;;;;3.77;1.40;;;18.40;99.90;;;;;;5107276;28;20264;-66
2023/04/02 00:19:37;;;;;;;4.17;1.23;;;18.80;99.90;;;;;;5114096;28;20166;-65
2023/04/02 00:22:12;;;;;;;2.60;1.20;;;19.00;99.90;;;;;;5114309;28;20535;-68
2023/04/02 00:24:40;;;;;;;5.73;1.20;;;19.40;99.90;;;;;;5113909;28;20177;-68
2023/04/02 00:27:13;;;;;;;7.03;1.63;;;19.80;99.90;;;;;;5113683;28;20210;-67
2023/04/02 00:29:55;;;;;;;5.87;1.50;;;19.90;99.90;;;;;;5113641;28;20174;-67
2023/04/02 00:32:32;;;;;;;5.87;1.13;;;20.00;99.90;;;;;;5114227;28;20182;-66
2023/04/02 00:35:00;;;;;;;5.50;1.70;;;20.00;99.90;;;;;;5113691;28;20637;-67
2023/04/02 00:37:37;;;;;;;5.13;1.17;;;19.70;99.90;;;;;;5113558;28;20181;-65
2023/04/02 00:40:10;;;;;;;4.17;1.30;;;19.40;99.90;;;;;;5113655;28;20236;-65
2023/04/02 00:42:39;;;;;;;6.07;1.17;;;19.50;99.90;;;;;;5113756;28;20662;-67
2023/04/02 00:45:35;;;;;;;5.57;1.40;;;19.70;99.90;;;;;;5113548;28;20214;-65
2023/04/02 00:48:25;;;;;;;6.40;1.60;;;19.60;99.90;;;;;;5113942;28;20205;-66
2023/04/02 00:50:55;;;;;;;6.03;1.63;;;19.40;99.90;;;;;;5113302;28;20166;-66
2023/04/02 00:53:30;;;;;;;6.00;1.20;;;19.40;99.90;;;;;;5113543;28;20649;-66
2023/04/02 00:56:01;;;;;;;6.80;1.50;;;19.30;99.90;;;;;;5112265;28;20207;-65
2023/04/02 00:58:36;;;;;;;6.23;1.40;;;19.30;99.90;;;;;;5113573;28;20641;-66
2023/04/02 01:01:15;;;;;;;5.70;1.47;;;19.30;99.90;;;;;;5113309;28;20186;-65
2023/04/02 01:03:43;;;;;;;12.70;1.63;;;19.40;99.90;;;;;;5113269;28;20182;-64
2023/04/02 01:06:17;;;;;;;6.77;1.27;;;19.50;99.90;;;;;;5110683;28;20219;-67
2023/04/02 01:09:18;;;;;;;6.43;1.40;;;19.60;99.90;;;;;;5092836;28;20262;-70
2023/04/02 01:12:02;;;;;;;8.53;1.60;;;19.60;99.90;;;;;;5098222;28;20610;-71
2023/04/02 01:14:43;;;;;;;9.60;2.20;;;19.70;99.90;;;;;;5113092;28;20200;-66
2023/04/02 01:17:34;;;;;;;6.53;1.80;;;19.80;99.90;;;;;;5092766;28;20191;-69
2023/04/02 01:20:30;;;;;;;7.73;1.60;;;19.90;99.90;;;;;;5092793;28;20175;-65
2023/04/02 01:23:12;;;;;;;7.97;1.67;;;19.90;99.90;;;;;;5101419;28;20670;-69
2023/04/02 01:25:54;;;;;;;8.30;1.90;;;20.10;99.90;;;;;;5113172;28;20217;-69
2023/04/02 01:28:26;;;;;;;6.17;1.83;;;20.10;99.90;;;;;;5094386;28;20630;-71
2023/04/02 01:30:56;;;;;;;3.63;1.30;;;20.20;99.90;;;;;;5105787;28;20581;-71
2023/04/02 01:33:30;;;;;;;3.47;1.20;;;20.20;99.90;;;;;;5093306;28;20557;-72
2023/04/02 01:36:17;;;;;;;7.93;1.40;;;20.30;99.90;;;;;;5092680;28;20638;-72
2023/04/02 01:39:03;;;;;;;10.00;1.97;;;20.20;99.90;;;;;;5092703;28;20206;-73
2023/04/02 01:41:57;;;;;;;6.27;1.50;;;20.30;99.90;;;;;;5092805;28;20185;-72
2023/04/02 01:44:51;;;;;;;7.07;1.50;;;20.40;99.90;;;;;;5084614;28;20210;-72
2023/04/02 01:47:28;;;;;;;9.73;1.40;;;20.50;99.90;;;;;;5086375;28;20729;-71
2023/04/02 01:50:16;;;;;;;11.03;2.13;;;20.70;99.90;;;;;;5091255;28;20662;-71
2023/04/02 01:52:49;;;;;;;7.60;1.23;;;20.70;99.90;;;;;;5092984;28;20266;-71
2023/04/02 01:55:45;;;;;;;7.97;1.60;;;20.80;99.90;;;;;;5092693;28;20184;-73
2023/04/02 01:58:16;;;;;;;8.67;1.90;;;20.90;99.90;;;;;;5104985;28;20179;-72
2023/04/02 02:00:51;;;;;;;9.70;1.90;;;20.80;99.90;;;;;;5116317;28;20179;-72
2023/04/02 02:03:20;;;;;;;7.23;1.60;;;20.90;99.90;;;;;;5099159;28;20183;-72
2023/04/02 02:05:48;;;;;;;10.00;2.10;;;21.00;99.90;;;;;;5095953;28;20222;-73
2023/04/02 02:08:31;;;;;;;12.93;2.50;;;20.80;99.90;;;;;;5096031;28;20822;-71
2023/04/02 02:11:00;;;;;;;6.17;1.90;;;20.10;99.90;;;;;;5089622;28;20628;-70
2023/04/02 02:13:27;;;;;;;8.27;2.03;;;19.80;99.90;;;;;;5094689;28;20179;-71
2023/04/02 02:15:58;;;;;;;10.07;2.63;;;19.50;99.90;;;;;;5098859;28;20265;-73
2023/04/02 02:18:27;;;;;;;13.27;2.00;;;19.10;99.90;;;;;;5106916;28;20182;-71
2023/04/02 02:20:57;;;;;;;12.70;1.90;;;18.80;99.90;;;;;;5095172;28;20261;-73
2023/04/02 02:23:26;;;;;;;6.60;1.60;;;18.60;99.90;;;;;;5095791;28;20254;-72
2023/04/02 02:29:19;;;;;;;10.43;1.67;;;18.30;99.90;;;;;;5109879;28;20277;-71
2023/04/02 02:31:51;;;;;;;11.33;2.20;;;18.50;99.90;;;;;;5113344;28;20167;-73
2023/04/02 02:34:24;;;;;;;9.07;1.63;;;18.70;99.90;;;;;;5105299;28;20182;-71
2023/04/02 02:37:06;;;;;;;11.23;1.50;;;18.80;99.90;;;;;;5111985;27;20184;-72
2023/04/02 02:39:47;;;;;;;15.83;2.57;;;19.00;99.90;;;;;;5100624;28;20232;-72
2023/04/02 02:42:34;;;;;;;6.03;1.40;;;19.30;99.90;;;;;;5108083;28;20192;-72
2023/04/02 02:45:05;;;;;;;12.07;2.07;;;19.50;99.90;;;;;;5093786;28;20208;-71
2023/04/02 02:47:35;;;;;;;8.50;2.10;;;19.70;99.90;;;;;;5102936;28;20186;-72
2023/04/02 02:50:17;;;;;;;6.73;1.57;;;19.90;99.90;;;;;;5103754;28;20224;-73
2023/04/02 02:52:50;;;;;;;9.67;1.80;;;20.00;99.90;;;;;;5093630;28;20194;-73
2023/04/02 02:55:35;;;;;;;15.90;2.30;;;20.20;99.90;;;;;;5096555;28;20189;-70
2023/04/02 02:58:18;;;;;;;9.17;2.13;;;20.10;99.90;;;;;;5103716;28;20203;-71
2023/04/02 03:00:47;;;;;;;8.07;1.70;;;20.00;99.90;;;;;;5093466;28;20216;-73
2023/04/02 03:03:26;;;;;;;8.33;1.70;;;19.90;99.90;;;;;;5093654;28;20222;-72
2023/04/02 03:05:57;;;;;;;5.23;1.70;;;19.90;99.90;;;;;;5093604;28;20222;-70
2023/04/02 03:09:02;;;;;;;8.20;2.53;;;20.00;99.90;;;;;;5093365;28;20295;-72
2023/04/02 03:12:12;;;;;;;6.37;1.73;;;20.20;99.90;;;;;;5107193;28;20182;-72
2023/04/02 03:14:59;;;;;;;7.57;1.57;;;20.60;99.90;;;;;;5090310;28;20197;-72
2023/04/02 03:17:38;;;;;;;7.77;1.90;;;20.70;99.90;;;;;;5094355;28;20188;-71
2023/04/02 03:20:11;;;;;;;10.40;2.37;;;20.80;99.90;;;;;;5113546;27;20194;-72
2023/04/02 03:22:54;;;;;;;9.97;2.33;;;20.70;99.90;;;;;;5112757;28;20179;-72
2023/04/02 03:25:48;;;;;;;9.60;2.23;;;20.70;99.90;;;;;;5097962;28;20179;-72
2023/04/02 03:28:21;;;;;;;9.03;1.73;;;20.40;99.90;;;;;;5093073;28;20632;-71
2023/04/02 03:30:57;;;;;;;8.60;1.83;;;20.30;99.90;;;;;;5108875;28;20175;-71
2023/04/02 03:33:38;;;;;;;10.03;1.93;;;20.00;99.90;;;;;;5094291;28;20186;-71
2023/04/02 03:36:27;;;;;;;4.80;1.50;;;19.90;99.90;;;;;;5103449;28;20348;-73
2023/04/02 03:39:32;;;;;;;1.93;0.80;;;19.60;99.90;;;;;;5119577;28;20179;-72
2023/04/02 03:42:08;;;;;;;1.73;1.03;;;19.10;99.90;;;;;;5059605;28;20559;-72
2023/04/02 03:44:47;;;;;;;2.47;0.77;;;18.70;99.90;;;;;;5098501;28;20191;-72
2023/04/02 03:47:38;;;;;;;1.10;0.70;;;18.40;99.90;;;;;;5092886;28;20657;-73
2023/04/02 03:50:15;;;;;;;1.50;1.00;;;18.20;99.90;;;;;;5092998;28;20171;-72
2023/04/02 03:52:44;;;;;;;8.23;0.97;;;18.10;99.90;;;;;;5092284;28;20183;-72
2023/04/02 03:55:20;;;;;;;2.33;1.30;;;18.20;99.90;;;;;;5091476;28;20183;-72
2023/04/02 03:58:13;;;;;;;1.67;0.87;;;18.30;99.90;;;;;;5104758;28;20210;-74
2023/04/02 04:00:52;;;;;;;2.13;0.83;;;18.30;99.90;;;;;;5113449;28;20188;-72
2023/04/02 04:03:28;;;;;;;1.90;0.80;;;18.30;99.90;;;;;;5093756;28;20182;-73
2023/04/02 04:06:32;;;;;;;1.87;0.97;;;18.40;99.90;;;;;;5092198;28;20246;-72
2023/04/02 04:09:19;;;;;;;1.93;0.83;;;18.40;99.90;;;;;;5029879;28;20291;-72
2023/04/02 04:11:50;;;;;;;2.43;1.13;;;18.30;99.90;;;;;;5077878;28;20191;-73
2023/04/02 04:14:36;;;;;;;1.60;0.90;;;18.30;99.90;;;;;;5093079;28;20179;-74
2023/04/02 04:17:22;;;;;;;5.27;1.47;;;18.40;99.90;;;;;;5092106;28;20207;-72
2023/04/02 04:20:06;;;;;;;5.23;1.37;;;18.30;99.90;;;;;;5092134;28;20201;-74
2023/04/02 04:22:34;;;;;;;4.93;1.20;;;18.40;99.90;;;;;;5093531;28;20183;-74
2023/04/02 04:25:16;;;;;;;2.37;1.10;;;18.50;99.90;;;;;;5107332;28;20185;-73
2023/04/02 04:28:04;;;;;;;3.93;1.40;;;18.60;99.90;;;;;;5109879;28;20195;-73
2023/04/02 04:30:42;;;;;;;5.47;1.60;;;18.80;99.90;;;;;;5092406;28;20626;-73
2023/04/02 04:33:21;;;;;;;4.53;1.10;;;19.30;99.90;;;;;;5092288;28;20182;-72
2023/04/02 04:35:58;;;;;;;4.90;1.27;;;19.30;99.90;;;;;;5091563;28;20179;-73
2023/04/02 04:38:38;;;;;;;5.20;1.20;;;20.00;99.90;;;;;;5099318;28;20188;-72
2023/04/02 04:41:27;;;;;;;1.77;1.00;;;20.30;99.90;;;;;;5112429;28;20265;-73
2023/04/02 04:44:13;;;;;;;4.00;1.67;;;20.40;99.90;;;;;;5096480;28;20548;-72
2023/04/02 04:47:10;;;;;;;2.63;1.10;;;20.50;99.90;;;;;;5090458;28;20776;-73
2023/04/02 04:50:10;;;;;;;3.10;1.00;;;20.60;99.90;;;;;;5091717;28;20167;-73
2023/04/02 04:52:40;;;;;;;4.23;0.90;;;20.70;99.90;;;;;;5091763;28;20194;-72
2023/04/02 04:55:38;;;;;;;2.23;0.90;;;20.70;99.90;;;;;;5099363;28;20712;-74
2023/04/02 04:58:40;;;;;;;1.93;0.80;;;21.00;99.90;;;;;;5090402;28;20207;-72
2023/04/02 05:01:21;;;;;;;3.70;1.07;;;21.20;99.90;;;;;;5091942;28;20205;-73
2023/04/02 05:03:57;;;;;;;6.63;1.03;;;21.30;99.90;;;;;;5112186;28;20176;-73
2023/04/02 05:06:31;;;;;;;4.13;1.20;;;21.50;99.90;;;;;;5111739;28;20300;-73
2023/04/02 05:09:10;;;;;;;3.23;1.10;;;21.40;99.90;;;;;;5112089;28;20171;-73
2023/04/02 05:11:43;;;;;;;5.90;1.27;;;21.10;99.90;;;;;;5094951;28;20606;-72
2023/04/02 05:14:37;;;;;;;7.07;1.50;;;20.90;99.90;;;;;;5091350;28;20178;-72
2023/04/02 05:17:16;;;;;;;6.50;1.30;;;20.60;99.90;;;;;;5094891;28;20195;-73
2023/04/02 05:19:51;;;;;;;5.37;1.50;;;20.50;99.90;;;;;;5111596;28;20174;-73
2023/04/02 05:22:50;;;;;;;9.23;1.90;;;20.50;99.90;;;;;;5112050;28;20230;-72
2023/04/02 05:25:29;;;;;;;6.43;1.33;;;20.60;99.90;;;;;;5110511;28;20179;-74
2023/04/02 05:28:15;;;;;;;4.40;1.10;;;20.50;99.90;;;;;;5111533;28;20723;-72
2023/04/02 05:30:48;;;;;;;3.63;1.03;;;20.30;99.90;;;;;;5111873;28;20170;-72
2023/04/02 05:33:31;;;;;;;3.90;1.57;;;19.90;99.90;;;;;;5112008;28;20163;-73
2023/04/02 05:36:04;;;;;;;5.67;1.13;;;19.40;99.90;;;;;;5115458;28;20521;-73
2023/04/02 05:38:37;;;;;;;5.60;1.23;;;19.00;99.90;;;;;;5115944;28;20237;-73
2023/04/02 05:41:30;;;;;;;1.57;0.87;;;18.80;99.90;;;;;;5115984;28;20173;-72
2023/04/02 05:44:27;;;;;;;2.20;0.73;;;18.50;99.90;;;;;;5115594;27;20179;-73
2023/04/02 05:46:57;;;;;;;4.13;1.20;;;18.50;99.90;;;;;;5115622;28;20208;-72
2023/04/02 05:50:13;;;;;;;3.10;0.90;;;18.40;99.90;;;;;;5115363;28;20549;-73
2023/04/02 05:52:46;;;;;;;5.30;1.53;;;18.40;99.90;;;;;;5032802;28;20221;-73
2023/04/02 05:55:14;;;;;;;3.97;1.07;;;18.30;99.90;;;;;;5016147;28;20220;-72
2023/04/02 05:57:54;;;;;;;1.47;0.87;;;18.40;99.90;;;;;;5082676;28;20192;-73
2023/04/02 06:00:48;;;;;;;3.23;1.00;;;18.40;99.90;;;;;;5115443;27;20190;-73
2023/04/02 06:03:43;;;;;;;3.30;1.03;;;18.40;99.90;;;;;;5114994;28;20229;-74
2023/04/02 06:06:26;;;;;;;2.67;1.80;;;18.50;99.90;;;;;;5113944;28;20337;-74
2023/04/02 06:09:05;;;;;;;6.23;2.63;;;18.40;99.90;;;;;;5114007;28;20962;-73
2023/04/02 06:11:44;;;;;;;5.47;1.20;;;18.50;99.90;;;;;;5114846;27;20179;-74
2023/04/02 06:14:16;;;;;;;3.27;0.70;;;18.50;99.90;;;;;;5115308;28;20194;-72
2023/04/02 06:16:45;;;;;;;1.70;1.30;;;18.50;99.90;;;;;;5114908;28;20238;-73
2023/04/02 06:19:26;;;;;;;3.30;0.97;;;18.50;99.90;;;;;;5113356;28;20258;-74
2023/04/02 06:22:07;;;;;;;4.87;0.90;;;18.40;99.90;;;;;;5115022;28;20539;-74
2023/04/02 06:24:38;;;;;;;3.07;0.80;;;18.50;99.90;;;;;;5114955;28;20584;-73
2023/04/02 06:27:11;;;;;;;4.83;0.80;;;18.50;99.90;;;;;;5114565;28;20624;-73
2023/04/02 06:29:43;;;;;;;2.43;0.80;;;18.50;99.90;;;;;;5114953;28;20169;-72
2023/04/02 06:32:12;;;;;;;2.27;0.80;;;18.40;99.90;;;;;;5114775;28;20695;-74
2023/04/02 06:34:41;;;;;;;1.77;0.90;;;18.40;99.90;;;;;;5114585;28;20175;-73
2023/04/02 06:37:33;;;;;;;2.63;1.27;;;18.40;99.90;;;;;;5114570;28;20183;-73
2023/04/02 06:40:23;;;;;;;3.33;1.10;;;18.40;99.90;;;;;;5114738;28;20193;-73
2023/04/02 06:42:58;;;;;;;3.97;1.23;;;18.30;99.90;;;;;;5114112;28;20231;-72
2023/04/02 06:45:31;;;;;;;2.70;0.87;;;18.40;99.90;;;;;;5114384;28;20232;-73
2023/04/02 06:48:01;;;;;;;7.20;5.17;;;18.40;99.90;;;;;;5114325;28;20266;-73
2023/04/02 06:50:36;;;;;;;12.57;5.07;;;18.40;99.90;;;;;;5113326;28;20175;-72
2023/04/02 06:53:10;;;;;;;4.53;2.23;;;18.40;99.90;;;;;;5104543;28;20185;-73
2023/04/02 06:55:41;;;;;;;2.53;1.20;;;18.40;99.90;;;;;;5093676;28;20182;-73
2023/04/02 06:58:09;;;;;;;3.83;1.37;;;18.30;99.90;;;;;;5094729;28;20255;-72
2023/04/02 07:00:41;;;;;;;5.57;1.47;;;18.30;99.90;;;;;;5096339;28;20186;-72
2023/04/02 07:03:37;;;;;;;15.80;9.20;;;18.30;99.90;;;;;;5093498;28;20655;-72
2023/04/02 07:06:04;;;;;;;41.87;21.03;;;18.20;99.90;;;;;;5093380;28;20246;-73
2023/04/02 07:08:32;;;;;;;28.87;15.67;;;18.10;99.90;;;;;;5093714;28;20175;-73
2023/04/02 07:11:00;;;;;;;24.10;14.60;;;18.10;99.90;;;;;;5096648;28;20267;-73
2023/04/02 07:13:28;;;;;;;14.57;6.60;;;18.00;99.90;;;;;;5113745;28;20175;-73
2023/04/02 07:15:56;;;;;;;11.93;7.43;;;18.00;99.90;;;;;;5099859;28;20393;-73
2023/04/02 07:18:24;;;;;;;54.23;28.23;;;18.00;99.90;;;;;;5110517;28;20590;-73
2023/04/02 07:20:52;;;;;;;41.63;22.53;;;17.90;99.90;;;;;;5111281;28;20177;-74
2023/04/02 07:23:20;;;;;;;13.57;6.77;;;17.90;99.90;;;;;;5093506;28;20254;-74
2023/04/02 07:25:50;;;;;;;9.43;4.03;;;17.90;99.90;;;;;;5093020;28;20195;-73
2023/04/02 07:28:19;;;;;;;18.63;7.83;;;17.90;99.90;;;;;;5111788;28;20217;-73
2023/04/02 07:30:48;;;;;;;2.57;1.67;;;17.90;99.90;;;;;;5109968;28;20638;-73
2023/04/02 07:33:18;;;;;;;3.83;1.60;;;17.80;99.90;;;;;;5093793;28;20186;-73
2023/04/02 07:35:46;;;;;;;4.73;1.43;;;17.80;99.90;;;;;;5093139;28;20202;-73
2023/04/02 07:38:14;;;;;;;5.63;1.20;;;17.80;99.90;;;;;;5093135;28;20179;-73
2023/04/02 07:40:42;;;;;;;8.27;1.90;;;17.80;99.90;;;;;;5092787;28;20265;-73
2023/04/02 07:43:10;;;;;;;19.33;9.57;;;17.90;99.90;;;;;;5093117;28;20180;-73
2023/04/02 07:45:37;;;;;;;6.87;2.43;;;17.90;99.90;;;;;;5092916;28;20561;-73
2023/04/02 07:48:11;;;;;;;2.60;1.70;;;17.80;99.90;;;;;;5092763;28;20286;-74
2023/04/02 07:50:39;;;;;;;8.03;3.77;;;17.80;99.90;;;;;;5092808;28;20167;-73
2023/04/02 07:53:07;;;;;;;11.50;4.90;;;17.80;99.90;;;;;;5093076;28;20187;-73
2023/04/02 07:55:38;;;;;;;7.67;3.27;;;17.80;99.90;;;;;;5092387;28;20188;-73
2023/04/02 07:58:06;;;;;;;8.50;3.80;;;17.80;99.90;;;;;;5092177;28;20183;-75
2023/04/02 08:00:34;;;;;;;8.50;3.20;;;17.80;99.90;;;;;;5091549;28;20184;-73
2023/04/02 08:03:01;;;;;;;5.17;2.20;;;17.80;99.90;;;;;;5092429;28;20183;-73
2023/04/02 08:05:29;;;;;;;4.23;1.60;;;17.80;99.90;;;;;;5103480;28;20206;-73
2023/04/02 08:07:57;;;;;;;4.50;2.37;;;17.80;99.90;;;;;;5111485;28;20175;-74
2023/04/02 08:10:25;;;;;;;6.43;1.60;;;17.80;99.90;;;;;;5112178;28;20192;-74
2023/04/02 08:12:52;;;;;;;3.73;1.40;;;17.80;99.90;;;;;;5113069;28;20255;-74
2023/04/02 08:15:20;;;;;;;3.70;1.83;;;17.70;99.90;;;;;;5112782;28;20226;-74
2023/04/02 08:17:48;;;;;;;4.43;1.60;;;17.80;99.90;;;;;;5112647;28;20200;-72
2023/04/02 08:20:21;;;;;;;4.13;1.40;;;17.70;99.90;;;;;;5112524;28;20193;-73
2023/04/02 08:22:50;;;;;;;2.63;1.33;;;17.70;99.90;;;;;;5112852;28;20175;-74
2023/04/02 08:25:18;;;;;;;3.93;1.20;;;17.80;99.90;;;;;;5111930;28;20170;-73
2023/04/02 08:27:49;;;;;;;4.43;1.60;;;17.80;99.90;;;;;;5112686;28;20259;-73
2023/04/02 08:30:17;;;;;;;5.03;1.70;;;17.80;99.90;;;;;;5112354;28;20265;-73
2023/04/02 08:32:45;;;;;;;6.03;1.90;;;17.80;99.90;;;;;;5112053;28;20262;-74
2023/04/02 08:35:15;;;;;;;4.60;1.83;;;17.80;99.90;;;;;;5112443;28;20172;-74
2023/04/02 08:37:43;;;;;;;6.00;2.43;;;17.80;99.90;;;;;;5112572;28;20181;-73
2023/04/02 08:40:24;;;;;;;4.97;2.40;;;17.90;99.90;;;;;;5111732;28;20175;-73
2023/04/02 08:43:29;;;;;;;7.17;2.17;;;17.90;99.90;;;;;;5111214;28;20261;-74
2023/04/02 08:46:50;;;;;;;4.67;2.07;;;17.80;99.90;;;;;;5112384;28;20206;-73
2023/04/02 08:49:41;;;;;;;6.63;1.80;;;17.90;99.90;;;;;;5010840;28;20194;-73
2023/04/02 08:52:36;;;;;;;7.57;2.10;;;17.70;99.90;;;;;;5010068;28;20178;-73
2023/04/02 08:55:16;;;;;;;7.23;2.23;;;17.60;99.90;;;;;;5084191;28;20283;-74
2023/04/02 08:57:51;;;;;;;7.23;2.20;;;17.50;99.90;;;;;;5111944;28;20195;-73
2023/04/02 09:00:38;;;;;;;5.60;2.37;;;17.50;99.90;;;;;;5112435;28;20171;-73
2023/04/02 09:03:19;;;;;;;5.97;2.00;;;17.50;99.90;;;;;;5111931;28;20265;-74
2023/04/02 09:05:50;;;;;;;6.90;2.13;;;17.60;99.90;;;;;;5112146;28;20258;-74
2023/04/02 09:08:26;;;;;;;7.40;1.57;;;17.60;99.90;;;;;;5100790;28;20339;-73
2023/04/02 09:11:00;;;;;;;5.20;1.63;;;17.60;99.90;;;;;;5098513;28;20174;-74
2023/04/02 09:13:30;;;;;;;5.33;1.87;;;17.50;99.90;;;;;;5098485;28;20190;-75
2023/04/02 09:16:11;;;;;;;5.50;1.57;;;17.50;99.90;;;;;;5098268;28;20225;-73
2023/04/02 09:18:40;;;;;;;5.20;1.53;;;17.60;99.90;;;;;;5113561;28;20193;-72
2023/04/02 09:21:20;;;;;;;6.13;1.53;;;17.60;99.90;;;;;;5117350;27;20604;-74
2023/04/02 09:23:49;;;;;;;6.93;1.37;;;17.60;99.90;;;;;;5118568;27;20273;-73
2023/04/02 09:26:29;;;;;;;5.27;1.70;;;17.60;99.90;;;;;;5118834;27;20213;-74
2023/04/02 09:29:28;;;;;;;3.60;1.77;;;17.60;99.90;;;;;;5118273;27;20286;-73
2023/04/02 09:32:36;;;;;;;4.43;1.70;;;17.60;99.90;;;;;;5118318;27;20175;-74
2023/04/02 09:35:17;;;;;;;6.07;2.33;;;17.50;99.90;;;;;;5118778;28;20177;-73
2023/04/02 09:37:46;;;;;;;9.77;2.57;;;17.40;99.90;;;;;;5118169;27;20182;-74
2023/04/02 09:40:25;;;;;;;7.27;2.93;;;17.50;99.90;;;;;;5118431;27;20348;-73
2023/04/02 09:43:12;;;;;;;6.10;2.40;;;17.40;99.90;;;;;;5118740;27;20170;-73
2023/04/02 09:45:43;;;;;;;8.90;2.37;;;17.40;99.90;;;;;;5118287;27;20197;-73
2023/04/02 09:48:51;;;;;;;9.50;3.80;;;17.40;99.90;;;;;;5116999;28;20523;-78
2023/04/02 09:51:25;;;;;;;7.20;3.07;;;17.50;99.90;;;;;;5118656;28;20222;-74
2023/04/02 09:54:01;;;;;;;6.50;2.47;;;17.50;99.90;;;;;;5117987;27;20663;-73
2023/04/02 09:56:38;;;;;;;7.33;2.97;;;17.50;99.90;;;;;;5118546;27;20541;-73
2023/04/02 09:59:18;;;;;;;5.63;2.77;;;17.50;99.90;;;;;;5100034;27;20173;-72
2023/04/02 10:01:56;;;;;;;8.37;3.20;;;17.50;99.90;;;;;;5098778;28;20262;-74
2023/04/02 10:04:43;;;;;;;9.13;3.70;;;17.40;99.90;;;;;;5110782;27;20206;-74
2023/04/02 10:07:31;;;;;;;13.00;4.33;;;17.40;99.90;;;;;;5118040;27;20214;-73
2023/04/02 10:10:41;;;;;;;4.63;2.50;;;17.40;99.90;;;;;;5118310;27;20166;-74
2023/04/02 10:13:31;;;;;;;4.83;1.70;;;17.40;99.90;;;;;;5079825;28;20687;-73
2023/04/02 10:16:25;;;;;;;4.60;1.70;;;17.30;99.90;;;;;;5097627;28;20232;-73
2023/04/02 10:19:17;;;;;;;3.80;1.50;;;17.30;99.90;;;;;;5097862;28;20188;-73
2023/04/02 10:21:51;;;;;;;3.73;1.50;;;17.20;99.90;;;;;;5094922;28;20175;-73
2023/04/02 10:24:19;;;;;;;5.47;1.60;;;17.10;99.90;;;;;;5094628;28;20208;-74
2023/04/02 10:26:54;;;;;;;2.10;1.47;;;17.10;99.90;;;;;;5094780;28;20616;-73
2023/04/02 10:29:49;;;;;;;5.23;1.77;;;17.10;99.90;;;;;;5094848;28;20277;-73
2023/04/02 10:32:23;;;;;;;5.03;2.43;;;17.00;99.90;;;;;;5094354;28;20183;-73
2023/04/02 10:35:16;;;;;;;7.73;2.27;;;17.00;99.90;;;;;;5098105;28;20179;-74
2023/04/02 10:38:01;;;;;;;4.07;1.90;;;17.00;99.90;;;;;;5111053;28;20195;-73
2023/04/02 10:40:32;;;;;;;7.43;2.47;;;17.00;99.90;;;;;;5095440;28;20187;-73
2023/04/02 10:43:28;;;;;;;5.93;2.27;;;17.00;99.90;;;;;;5104799;28;20653;-73
2023/04/02 10:46:19;;;;;;;7.03;1.60;;;17.00;99.90;;;;;;5116287;28;20215;-73
2023/04/02 10:49:20;;;;;;;4.20;1.20;;;16.90;99.90;;;;;;5114823;28;20228;-73
2023/04/02 10:52:20;;;;;;;2.80;1.17;;;16.90;99.90;;;;;;5116198;28;20167;-72
2023/04/02 10:54:58;;;;;;;4.17;1.63;;;16.80;99.90;;;;;;5115967;28;20519;-74
2023/04/02 10:57:40;;;;;;;4.93;1.17;;;16.80;99.90;;;;;;5099440;28;20182;-73
2023/04/02 11:00:17;;;;;;;6.47;1.47;;;16.80;99.90;;;;;;5094739;28;20223;-73
2023/04/02 11:02:48;;;;;;;2.17;1.00;;;16.80;99.90;;;;;;5095080;28;20171;-74
2023/04/02 11:05:42;;;;;;;4.83;1.10;;;16.90;99.90;;;;;;5094945;28;20258;-73
2023/04/02 11:08:51;;;;;;;3.70;1.10;;;16.80;99.90;;;;;;5094660;28;20179;-73
2023/04/02 11:11:42;;;;;;;7.23;1.30;;;16.90;99.90;;;;;;5032397;28;20181;-73
2023/04/02 11:14:22;;;;;;;8.67;1.87;;;16.70;99.90;;;;;;5092463;28;20192;-71
2023/04/02 11:16:52;;;;;;;7.30;1.77;;;16.60;99.90;;;;;;5094709;28;20227;-74
2023/04/02 11:19:21;;;;;;;2.77;0.97;;;16.60;99.90;;;;;;5094511;28;20186;-72
2023/04/02 11:21:51;;;;;;;6.30;1.30;;;16.50;99.90;;;;;;5094540;28;20199;-72
2023/04/02 11:24:31;;;;;;;4.23;1.30;;;16.50;99.90;;;;;;5094332;28;20176;-72
2023/04/02 11:27:24;;;;;;;4.67;1.10;;;16.50;99.90;;;;;;5094417;28;20213;-72
2023/04/02 11:30:17;;;;;;;7.47;1.50;;;16.60;99.90;;;;;;5094289;28;20194;-72
2023/04/02 11:32:48;;;;;;;1.87;1.00;;;16.60;99.90;;;;;;5093129;28;20172;-72
2023/04/02 11:35:31;;;;;;;6.00;1.20;;;16.60;99.90;;;;;;5094280;28;20198;-72
2023/04/02 11:38:22;;;;;;;2.30;1.10;;;16.60;99.90;;;;;;5093940;28;20650;-72
2023/04/02 11:40:57;;;;;;;4.20;1.20;;;16.70;99.90;;;;;;5093876;28;20179;-72
2023/04/02 11:43:34;;;;;;;2.50;0.97;;;16.70;99.90;;;;;;5104589;28;20182;-71
2023/04/02 11:46:05;;;;;;;3.87;1.20;;;16.70;99.90;;;;;;5104523;28;20704;-72
2023/04/02 11:48:39;;;;;;;3.00;1.10;;;16.70;99.90;;;;;;5102182;28;20171;-73
2023/04/02 11:51:30;;;;;;;2.53;1.07;;;16.80;99.90;;;;;;5103946;28;20635;-73
2023/04/02 11:53:58;;;;;;;5.07;1.20;;;16.80;99.90;;;;;;5092703;28;20236;-73
2023/04/02 11:56:54;;;;;;;4.43;1.20;;;16.90;99.90;;;;;;5097683;28;20191;-74
2023/04/02 11:59:35;;;;;;;6.67;1.10;;;16.80;99.90;;;;;;5108637;28;20186;-73
2023/04/02 12:02:24;;;;;;;6.87;1.30;;;16.70;99.90;;;;;;5103098;28;20170;-73
2023/04/02 12:05:15;;;;;;;2.27;0.97;;;16.60;99.90;;;;;;5109957;28;20194;-73
2023/04/02 12:08:13;;;;;;;3.27;1.10;;;16.60;99.90;;;;;;5100536;28;20739;-73
2023/04/02 12:10:59;;;;;;;2.93;1.00;;;16.50;99.90;;;;;;5104259;28;20179;-74
2023/04/02 12:13:42;;;;;;;4.77;1.10;;;16.50;99.90;;;;;;5101460;28;20228;-72
2023/04/02 12:16:15;;;;;;;2.77;1.00;;;16.40;99.90;;;;;;5101696;28;20279;-73
2023/04/02 12:18:55;;;;;;;6.10;1.10;;;16.40;99.90;;;;;;5096304;28;20187;-73
2023/04/02 12:21:26;;;;;;;3.27;1.27;;;16.40;99.90;;;;;;5093493;28;20573;-72
2023/04/02 12:23:57;;;;;;;3.87;1.00;;;16.30;99.90;;;;;;5094927;28;20221;-73
2023/04/02 12:26:35;;;;;;;3.53;1.30;;;16.30;99.90;;;;;;5093266;28;20268;-72
2023/04/02 12:29:25;;;;;;;3.90;1.10;;;16.20;99.90;;;;;;5091726;28;20175;-73
2023/04/02 12:31:57;;;;;;;5.80;1.20;;;16.20;99.90;;;;;;5093570;28;20256;-73
2023/04/02 12:34:27;;;;;;;4.57;1.03;;;16.10;99.90;;;;;;5093344;28;20175;-74
2023/04/02 12:37:04;;;;;;;8.13;1.20;;;16.10;99.90;;;;;;5100848;28;20536;-73
2023/04/02 12:39:34;;;;;;;5.93;1.40;;;16.10;99.90;;;;;;5106093;28;20185;-73
2023/04/02 12:42:02;;;;;;;3.37;0.90;;;16.10;99.90;;;;;;5093107;28;20634;-72
2023/04/02 12:44:31;;;;;;;4.90;1.10;;;16.10;99.90;;;;;;5092454;28;20211;-73
2023/04/02 12:46:59;;;;;;;3.73;1.07;;;16.20;99.90;;;;;;5099547;28;20221;-73
2023/04/02 12:49:41;;;;;;;3.30;1.07;;;16.20;99.90;;;;;;5108002;28;20183;-72
2023/04/02 12:52:15;;;;;;;1.47;0.77;;;16.20;99.90;;;;;;5096330;28;20744;-72
2023/04/02 12:54:57;;;;;;;4.40;1.43;;;16.20;99.90;;;;;;5091617;28;20676;-74
2023/04/02 12:57:37;;;;;;;7.17;1.60;;;16.20;99.90;;;;;;5108704;28;20279;-74
2023/04/02 13:00:26;;;;;;;5.57;1.37;;;16.10;99.90;;;;;;5093051;28;20209;-73
2023/04/02 13:03:16;;;;;;;3.43;1.17;;;16.10;99.90;;;;;;5098196;28;20178;-73
2023/04/02 13:05:53;;;;;;;4.53;1.23;;;16.00;99.90;;;;;;5101938;28;20214;-73
2023/04/02 13:08:32;;;;;;;6.63;1.23;;;16.00;99.90;;;;;;5108806;28;20193;-73
2023/04/02 13:11:04;;;;;;;4.33;1.03;;;16.00;99.90;;;;;;5112330;28;20255;-74
2023/04/02 13:13:38;;;;;;;6.80;1.03;;;15.80;99.90;;;;;;5112702;28;20178;-73
2023/04/02 13:16:18;;;;;;;6.50;1.20;;;15.80;99.90;;;;;;5112537;28;20315;-73
2023/04/02 13:18:48;;;;;;;3.60;0.97;;;15.80;99.90;;;;;;5111729;28;20701;-74
2023/04/02 13:21:28;;;;;;;6.23;1.30;;;15.80;99.90;;;;;;5107214;28;20182;-73
2023/04/02 13:23:59;;;;;;;3.63;1.50;;;15.80;99.90;;;;;;5111730;28;20660;-73
2023/04/02 13:26:28;;;;;;;3.80;1.17;;;15.70;99.90;;;;;;5110858;28;20285;-73
2023/04/02 13:29:16;;;;;;;3.70;1.00;;;15.60;99.90;;;;;;5112095;28;20198;-73
2023/04/02 13:31:44;;;;;;;2.80;1.20;;;15.60;99.90;;;;;;5092461;28;20654;-73
2023/04/02 13:34:12;;;;;;;4.73;1.50;;;15.60;99.90;;;;;;5093974;28;20260;-73
2023/04/02 13:36:40;;;;;;;4.93;1.13;;;15.60;99.90;;;;;;5092101;28;20175;-72
2023/04/02 13:39:07;;;;;;;4.83;1.10;;;15.60;99.90;;;;;;5092641;28;20187;-72
2023/04/02 13:41:44;;;;;;;4.13;1.20;;;15.60;99.90;;;;;;5096335;28;20262;-72
2023/04/02 13:44:41;;;;;;;2.13;1.10;;;15.60;99.90;;;;;;5093380;28;20206;-72
2023/04/02 13:47:13;;;;;;;3.10;1.33;;;15.60;99.90;;;;;;5092648;28;20287;-72
2023/04/02 13:49:41;;;;;;;6.57;1.27;;;15.50;99.90;;;;;;5092327;28;20182;-73